23. Mai 2022

Uhrzeit Code Wetter Temp. Sichtweite Wolken Wind METAR/SPECI
17:20
V
23 °C 10 km+ 10.000 ft 120°   120° 9 kt METAR ETNT 231520Z 12009KT 9999 BKN100 23/12 Q0998 BLACKBLU
16:20
V
23 °C 10 km+ 19.000 ft 120°   120° 12 kt METAR ETNT 231420Z 12012KT 9999 SCT140 BKN190 23/12 Q0999 BLACKBLU
15:20
V
24 °C 10 km+ - 110°   110° 14 kt METAR ETNT 231320Z 11014KT 9999 FEW140 SCT190 24/12 Q1000 BLACKBLU+
14:20
V
23 °C 10 km+ 21.000 ft 120°   120° 12 kt METAR ETNT 231220Z 12012KT 9999 SCT180 BKN210 23/12 Q1001 BLACKBLU+
13:20
V
22 °C 10 km+ 19.000 ft 120°   120° 12 kt METAR ETNT 231120Z 12012KT 9999 FEW140 BKN190 22/11 Q1002 BLACKBLU
12:20
V
21 °C 10 km+ 19.000 ft 130°   130° 11 kt METAR ETNT 231020Z 13011KT 9999 FEW120 BKN190 21/12 Q1003 BLACKBLU
11:20
V
20 °C 10 km+ 21.000 ft 120°   120° 9 kt METAR ETNT 230920Z 12009KT 9999 FEW120 BKN210 20/12 Q1004 BLACKBLU+
10:20
V
18 °C 10 km+ 21.000 ft 130°   130° 10 kt METAR ETNT 230820Z 13010KT 9999 SCT120 BKN210 18/11 Q1005 BLACKBLU+
09:20
V
16 °C 10 km+ - 120°   120° 9 kt METAR ETNT 230720Z 12009KT 9999 SCT120 SCT240 16/10 Q1005 BLACKBLU+
08:20
V
14 °C 10 km+ - 110°   110° 8 kt METAR ETNT 230620Z 11008KT 9999 SCT130 SCT240 14/09 Q1006 BLACKBLU+
07:20
V
12 °C 10 km+ 14.000 ft 120°   120° 7 kt METAR ETNT 230520Z 12007KT 9999 BKN140 12/08 Q1007 BLACKBLU
06:20
V
11 °C 10 km+ 13.000 ft 110°   110° 4 kt METAR ETNT 230420Z 11004KT 9999 BKN130 11/08 Q1008 BLACKBLU
05:20
L
10 °C 0 m - Var   000° 0 kt METAR ETNT 230320Z AUTO /////KT //// // ////// 10/07 Q1008 ///
04:20
L
11 °C 0 m - Var   000° 0 kt METAR ETNT 230220Z AUTO /////KT //// // ////// 11/08 Q1009 ///
03:20
L
12 °C 0 m - Var   000° 0 kt METAR ETNT 230120Z AUTO /////KT //// // ////// 12/08 Q1009 ///
02:20
L
12 °C 0 m - Var   000° 0 kt METAR ETNT 230020Z AUTO /////KT //// // ////// 12/08 Q1011 ///
01:20
L
13 °C 0 m - Var   000° 0 kt METAR ETNT 222320Z AUTO /////KT //// // ////// 13/09 Q1011 ///
00:20
L
10 °C 0 m - Var   000° 0 kt METAR ETNT 222220Z AUTO /////KT //// // ////// 10/09 Q1011 ///

22. Mai 2022

Uhrzeit Code Wetter Temp. Sichtweite Wolken Wind METAR/SPECI
23:20
L
12 °C 0 m - Var   000° 0 kt METAR ETNT 222120Z AUTO /////KT //// // ////// 12/08 Q1012 ///
22:20
L
12 °C 0 m - Var   000° 0 kt METAR ETNT 222020Z AUTO /////KT //// // ////// 12/09 Q1012 ///
21:20
L
14 °C 0 m - Var   000° 0 kt METAR ETNT 221920Z AUTO /////KT //// // ////// 14/09 Q1013 ///
20:20
L
15 °C 0 m - Var   000° 0 kt METAR ETNT 221820Z AUTO /////KT //// // ////// 15/09 Q1013 ///
19:20
L
17 °C 0 m - Var   000° 0 kt METAR ETNT 221720Z AUTO /////KT //// // ////// 17/10 Q1013 ///
18:20
L
18 °C 0 m - Var   000° 0 kt METAR ETNT 221620Z AUTO /////KT //// // ////// 18/09 Q1014 ///
17:20
L
18 °C 0 m - Var   000° 0 kt METAR ETNT 221520Z AUTO /////KT //// // ////// 18/09 Q1014 ///
16:20
L
18 °C 0 m - Var   000° 0 kt METAR ETNT 221420Z AUTO /////KT //// // ////// 18/08 Q1014 ///
15:20
L
18 °C 0 m - Var   000° 0 kt METAR ETNT 221320Z AUTO /////KT //// // ////// 18/07 Q1015 ///
14:20
L
17 °C 0 m - Var   000° 0 kt METAR ETNT 221220Z AUTO /////KT //// // ////// 17/08 Q1016 ///
13:20
L
17 °C 0 m - Var   000° 0 kt METAR ETNT 221120Z AUTO /////KT //// // ////// 17/07 Q1016 ///
12:20
L
16 °C 0 m - Var   000° 0 kt METAR ETNT 221020Z AUTO /////KT //// // ////// 16/07 Q1017 ///
11:20
L
16 °C 0 m - Var   000° 0 kt METAR ETNT 220920Z AUTO /////KT //// // ////// 16/07 Q1017 ///
10:20
L
15 °C 0 m - Var   000° 0 kt METAR ETNT 220820Z AUTO /////KT //// // ////// 15/07 Q1017 ///
09:20
L
14 °C 0 m - Var   000° 0 kt METAR ETNT 220720Z AUTO /////KT //// // ////// 14/07 Q1017 ///
08:20
L
13 °C 0 m - Var   000° 0 kt METAR ETNT 220620Z AUTO /////KT //// // ////// 13/09 Q1017 ///
07:20
L
9 °C 0 m - Var   000° 0 kt METAR ETNT 220520Z AUTO /////KT //// // ////// 09/09 Q1017 ///
06:20
L
7 °C 0 m - Var   000° 0 kt METAR ETNT 220420Z AUTO /////KT //// // ////// 07/06 Q1017 ///
05:20
L
7 °C 0 m - Var   000° 0 kt METAR ETNT 220320Z AUTO /////KT //// // ////// 07/07 Q1017 ///
04:20
L
7 °C 0 m - Var   000° 0 kt METAR ETNT 220220Z AUTO /////KT //// // ////// 07/07 Q1018 ///
03:20
L
7 °C 0 m - Var   000° 0 kt METAR ETNT 220120Z AUTO /////KT //// // ////// 07/07 Q1018 ///
02:20
L
8 °C 0 m - Var   000° 0 kt METAR ETNT 220020Z AUTO /////KT //// // ////// 08/08 Q1018 ///
01:20
L
10 °C 0 m - Var   000° 0 kt METAR ETNT 212320Z AUTO /////KT //// // ////// 10/09 Q1018 ///
00:20
L
10 °C 0 m - Var   000° 0 kt METAR ETNT 212220Z AUTO /////KT //// // ////// 10/08 Q1018 ///

21. Mai 2022

Uhrzeit Code Wetter Temp. Sichtweite Wolken Wind METAR/SPECI
23:20
L
11 °C 0 m - Var   000° 0 kt METAR ETNT 212120Z AUTO /////KT //// // ////// 11/09 Q1019 ///
22:20
L
12 °C 0 m - Var   000° 0 kt METAR ETNT 212020Z AUTO /////KT //// // ////// 12/09 Q1019 ///
21:20
L
12 °C 0 m - Var   000° 0 kt METAR ETNT 211920Z AUTO /////KT //// // ////// 12/09 Q1019 ///
20:20
L
13 °C 0 m - Var   000° 0 kt METAR ETNT 211820Z AUTO /////KT //// // ////// 13/09 Q1019 ///
19:20
L
14 °C 0 m - Var   000° 0 kt METAR ETNT 211720Z AUTO /////KT //// // ////// 14/08 Q1019 ///
18:20
L
15 °C 0 m - Var   000° 0 kt METAR ETNT 211620Z AUTO /////KT //// // ////// 15/09 Q1019 ///
17:20
L
15 °C 0 m - Var   000° 0 kt METAR ETNT 211520Z AUTO /////KT //// // ////// 15/08 Q1019 ///
Ältere Daten

Laden Sie unsere App herunter

Einfacher Zugriff auf das gesamte Flugwetter auf Ihrem Mobiltelefon und Tablet.
Mit vielen Funktionen, die auf der Website nicht verfügbar sind, wie Offline-Unterstützung und eine persönliche Flughafenliste.

Wir und Dritte verfolgen dein Internetverhalten auf unserer Website mit Cookies. Wenn du fortfährst, gehen wir davon aus, dass du mit unserer Cookie-Richtlinie einverstanden bist. Mehr erfahren